MSC Suez — HPMS — position and weather

sailwx.info

Track history (hours):
 
Tides and Currents Weather Stations Pressure Air Temp Water Temp Dewpoint Dewpoint Depression Visibility Wind Speed Wind Dir Waves Ship Positions

MSC Suez

Last reported at 2015-Mar-30 12:19 UTC. Time now 2015-Mar-30 16:14 UTC.
Position N 55°58' E 011°01'.

Length 237 m; draft 10.4 m.

Type: Cargo ship. MMSI: 355289000.

Date/timePositionNaut miles runAvg speedWind from/ knotsBaromVisibWave heightAir tempDewpointWater temp
2015-Mar-30 12:19N 55°58' E 011°01'5018.0
2015-Mar-30 09:34N 56°41' E 011°47'1717.1
2015-Mar-30 08:34N 56°58' E 011°44'1817.3
2015-Mar-30 07:32N 57°14' E 011°33'1717.6
2015-Mar-30 06:33N 57°30' E 011°20'1817.8
2015-Mar-30 05:33N 57°42' E 010°55'1818.2
2015-Mar-30 04:33N 57°46' E 010°22'18017.9
2015-Mar-29 18:29N 55°38' E 006°31'2418.4
2015-Mar-29 17:12N 55°18' E 006°09'6116.8
2015-Mar-29 13:33N 54°26' E 005°14'1716.8
2015-Mar-29 12:34N 54°11' E 005°01'1816.7
2015-Mar-29 11:30N 53°54' E 004°53'1616.9
2015-Mar-29 10:33N 53°38' E 004°51'1717.2
2015-Mar-29 09:34N 53°22' E 004°40'1717.2
2015-Mar-29 08:33N 53°07' E 004°27'1917.1
2015-Mar-29 07:26N 52°50' E 004°11'1416.2
2015-Mar-29 06:33N 52°37' E 004°01'1615.8
2015-Mar-29 05:33N 52°22' E 003°52'1615.6
2015-Mar-29 04:33N 52°07' E 003°55'1010.2
2015-Mar-29 03:33N 51°59' E 004°05'2 1.5
2015-Mar-29 02:32N 51°58' E 004°02'0 0.0
2015-Mar-29 01:32N 51°58' E 004°02'0 0.0
2015-Mar-29 00:32N 51°58' E 004°02'0 0.0
2015-Mar-28 23:32N 51°58' E 004°02'0 0.0
2015-Mar-28 22:32N 51°58' E 004°02'0 0.0
2015-Mar-28 21:32N 51°58' E 004°02'1 0.7
2015-Mar-28 20:33N 51°58' E 004°03'1 0.6
2015-Mar-28 19:33N 51°58' E 004°04'0 0.0
2015-Mar-28 18:33N 51°58' E 004°04'0 0.0
2015-Mar-28 17:33N 51°58' E 004°04'0 0.0
2015-Mar-28 16:33N 51°58' E 004°04'0 0.0
2015-Mar-28 15:33N 51°58' E 004°04'0 0.0
2015-Mar-28 14:33N 51°58' E 004°04'0 0.0
2015-Mar-28 13:33N 51°58' E 004°04'0 0.0
2015-Mar-28 12:33N 51°58' E 004°04'0 0.0
2015-Mar-28 11:33N 51°58' E 004°04'0 0.0
2015-Mar-28 10:33N 51°58' E 004°04'1 1.0
2015-Mar-28 09:33N 51°58' E 004°05'1110.5
2015-Mar-28 08:33N 51°60' E 003°48'1514.8
2015-Mar-28 07:34N 51°55' E 003°26'1817.1
2015-Mar-28 06:31N 51°40' E 003°12'1616.0
2015-Mar-28 05:32N 51°25' E 003°03'1515.6
2015-Mar-28 04:33N 51°25' E 003°28'9 9.3
2015-Mar-28 03:33N 51°25' E 003°43'1010.3
2015-Mar-28 02:34N 51°26' E 003°59'1111.4
2015-Mar-28 01:34N 51°21' E 004°15'1 1.2
2015-Mar-28 00:34N 51°21' E 004°17'1 0.5
2015-Mar-27 23:30N 51°21' E 004°18'1 1.2
2015-Mar-27 22:34N 51°20' E 004°19'1 0.6
2015-Mar-27 21:32N 51°19' E 004°20'0 0.0
2015-Mar-27 20:32N 51°19' E 004°20'0 0.0
2015-Mar-27 19:29N 51°19' E 004°20'0 0.0
2015-Mar-27 18:32N 51°19' E 004°20'0 0.1
2015-Mar-27 17:30N 51°19' E 004°20'1 0.5
2015-Mar-27 16:28N 51°20' E 004°20'0 0.0
2015-Mar-27 15:25N 51°20' E 004°20'0 0.0
2015-Mar-27 14:31N 51°20' E 004°20'0 0.0
2015-Mar-27 13:31N 51°20' E 004°20'0 0.0
2015-Mar-27 12:22N 51°20' E 004°20'0 0.0
2015-Mar-27 11:25N 51°20' E 004°20'0 0.0
2015-Mar-27 10:31N 51°20' E 004°20'0 0.0
2015-Mar-27 09:31N 51°20' E 004°20'0 0.0
2015-Mar-27 08:28N 51°20' E 004°20'0 0.0
2015-Mar-27 07:28N 51°20' E 004°20'0 0.0
2015-Mar-27 06:31N 51°20' E 004°20'0 0.0
2015-Mar-27 05:31N 51°20' E 004°20'0 0.0
2015-Mar-27 04:31N 51°20' E 004°20'0 0.0
2015-Mar-27 03:19N 51°20' E 004°20'0 0.0
2015-Mar-27 02:31N 51°20' E 004°20'0 0.0
2015-Mar-27 01:32N 51°20' E 004°20'0 0.0
2015-Mar-27 00:31N 51°20' E 004°20'0 0.0
2015-Mar-26 23:25N 51°20' E 004°20'0 0.0
2015-Mar-26 22:32N 51°20' E 004°20'0 0.0
2015-Mar-26 21:26N 51°20' E 004°20'0 0.0
2015-Mar-26 20:29N 51°20' E 004°20'0 0.0
2015-Mar-26 19:26N 51°20' E 004°20'0 0.0
2015-Mar-26 18:32N 51°20' E 004°20'0 0.0
2015-Mar-26 17:32N 51°20' E 004°20'0 0.0
2015-Mar-26 16:32N 51°20' E 004°20'0 0.0
2015-Mar-26 15:29N 51°20' E 004°20'0 0.0
2015-Mar-26 14:32N 51°20' E 004°20'0 0.0
2015-Mar-26 13:32N 51°20' E 004°20'0 0.0
2015-Mar-26 12:32N 51°20' E 004°20'0 0.0
2015-Mar-26 11:31N 51°20' E 004°20'0 0.0
2015-Mar-26 10:32N 51°20' E 004°20'0 0.0
2015-Mar-26 09:32N 51°20' E 004°20'0 0.0
2015-Mar-26 08:32N 51°20' E 004°20'0 0.0
2015-Mar-26 07:32N 51°20' E 004°20'0 0.0
2015-Mar-26 06:32N 51°20' E 004°20'0 0.0
2015-Mar-26 05:29N 51°20' E 004°20'0 0.0
2015-Mar-26 04:29N 51°20' E 004°20'0 0.2
2015-Mar-26 03:34N 51°20' E 004°20'2 2.2
2015-Mar-26 02:34N 51°21' E 004°17'1 1.1
2015-Mar-26 01:34N 51°21' E 004°15'6 5.9
2015-Mar-26 00:34N 51°22' E 004°06'7 6.6
2015-Mar-25 23:33N 51°22' E 003°56'10 9.9
2015-Mar-25 22:33N 51°26' E 003°41'9 9.2
2015-Mar-25 21:34N 51°25' E 003°26'1413.8
2015-Mar-25 20:33N 51°24' E 003°04'1312.7
2015-Mar-25 19:33N 51°22' E 002°44'4 3.7
2015-Mar-25 18:33N 51°25' E 002°40'0 0.0
2015-Mar-25 17:31N 51°25' E 002°40'0 0.0
2015-Mar-25 16:28N 51°25' E 002°40'0 0.1
2015-Mar-25 15:25N 51°25' E 002°40'0 0.1
2015-Mar-25 14:28N 51°25' E 002°40'0 0.1
2015-Mar-25 13:31N 51°25' E 002°40'0 0.0
2015-Mar-25 12:31N 51°25' E 002°40'0 0.0
2015-Mar-25 11:31N 51°25' E 002°40'0 0.0
2015-Mar-25 10:31N 51°25' E 002°40'0 0.0
2015-Mar-25 09:31N 51°25' E 002°40'0 0.1
2015-Mar-25 08:31N 51°25' E 002°40'0 0.0
2015-Mar-25 07:31N 51°25' E 002°40'0 0.2
2015-Mar-25 06:30N 51°25' E 002°40'2 2.1
2015-Mar-25 05:33N 51°23' E 002°39'1212.5
2015-Mar-25 04:33N 51°19' E 002°20'1818.2
2015-Mar-25 03:33N 51°11' E 001°54'1918.8
2015-Mar-25 02:33N 50°59' E 001°30'1817.5
2015-Mar-25 01:33N 50°43' E 001°21'4217.6
2015-Mar-24 23:09N 50°24' E 000°21'  
2015-Mar-22 15:33N 39°17' W 009°49'1616.1
2015-Mar-22 14:33N 39°01' W 009°52'1616.1
2015-Mar-22 13:33N 38°45' W 009°52'1615.6
2015-Mar-22 12:33N 38°29' W 009°51'1616.1
2015-Mar-22 11:33N 38°13' W 009°51'1615.7
2015-Mar-22 10:33N 37°57' W 009°52'1515.4
2015-Mar-22 09:33N 37°43' W 009°58'1818.5
2015-Mar-22 08:33N 37°25' W 009°54'  
Track history (hours):
 
Tides and Currents Weather Stations Pressure Air Temp Water Temp Dewpoint Dewpoint Depression Visibility Wind Speed Wind Dir Waves Ship Positions

MSC Suez

Last reported at 2015-Mar-30 12:19 UTC. Time now 2015-Mar-30 16:14 UTC.
Position N 55°58' E 011°01'.

Length 237 m; draft 10.4 m.

Type: Cargo ship. MMSI: 355289000.

Date/timePositionNaut miles runAvg speedWind from/ knotsBaromVisibWave heightAir tempDewpointWater temp
2015-Mar-30 12:19N 55°58' E 011°01'5018.0
2015-Mar-30 09:34N 56°41' E 011°47'1717.1
2015-Mar-30 08:34N 56°58' E 011°44'1817.3
2015-Mar-30 07:32N 57°14' E 011°33'1717.6
2015-Mar-30 06:33N 57°30' E 011°20'1817.8
2015-Mar-30 05:33N 57°42' E 010°55'1818.2
2015-Mar-30 04:33N 57°46' E 010°22'18017.9
2015-Mar-29 18:29N 55°38' E 006°31'2418.4
2015-Mar-29 17:12N 55°18' E 006°09'6116.8
2015-Mar-29 13:33N 54°26' E 005°14'1716.8
2015-Mar-29 12:34N 54°11' E 005°01'1816.7
2015-Mar-29 11:30N 53°54' E 004°53'1616.9
2015-Mar-29 10:33N 53°38' E 004°51'1717.2
2015-Mar-29 09:34N 53°22' E 004°40'1717.2
2015-Mar-29 08:33N 53°07' E 004°27'1917.1
2015-Mar-29 07:26N 52°50' E 004°11'1416.2
2015-Mar-29 06:33N 52°37' E 004°01'1615.8
2015-Mar-29 05:33N 52°22' E 003°52'1615.6
2015-Mar-29 04:33N 52°07' E 003°55'1010.2
2015-Mar-29 03:33N 51°59' E 004°05'2 1.5
2015-Mar-29 02:32N 51°58' E 004°02'0 0.0
2015-Mar-29 01:32N 51°58' E 004°02'0 0.0
2015-Mar-29 00:32N 51°58' E 004°02'0 0.0
2015-Mar-28 23:32N 51°58' E 004°02'0 0.0
2015-Mar-28 22:32N 51°58' E 004°02'0 0.0
2015-Mar-28 21:32N 51°58' E 004°02'1 0.7
2015-Mar-28 20:33N 51°58' E 004°03'1 0.6
2015-Mar-28 19:33N 51°58' E 004°04'0 0.0
2015-Mar-28 18:33N 51°58' E 004°04'0 0.0
2015-Mar-28 17:33N 51°58' E 004°04'0 0.0
2015-Mar-28 16:33N 51°58' E 004°04'0 0.0
2015-Mar-28 15:33N 51°58' E 004°04'0 0.0
2015-Mar-28 14:33N 51°58' E 004°04'0 0.0
2015-Mar-28 13:33N 51°58' E 004°04'0 0.0
2015-Mar-28 12:33N 51°58' E 004°04'0 0.0
2015-Mar-28 11:33N 51°58' E 004°04'0 0.0
2015-Mar-28 10:33N 51°58' E 004°04'1 1.0
2015-Mar-28 09:33N 51°58' E 004°05'1110.5
2015-Mar-28 08:33N 51°60' E 003°48'1514.8
2015-Mar-28 07:34N 51°55' E 003°26'1817.1
2015-Mar-28 06:31N 51°40' E 003°12'1616.0
2015-Mar-28 05:32N 51°25' E 003°03'1515.6
2015-Mar-28 04:33N 51°25' E 003°28'9 9.3
2015-Mar-28 03:33N 51°25' E 003°43'1010.3
2015-Mar-28 02:34N 51°26' E 003°59'1111.4
2015-Mar-28 01:34N 51°21' E 004°15'1 1.2
2015-Mar-28 00:34N 51°21' E 004°17'1 0.5
2015-Mar-27 23:30N 51°21' E 004°18'1 1.2
2015-Mar-27 22:34N 51°20' E 004°19'1 0.6
2015-Mar-27 21:32N 51°19' E 004°20'0 0.0
2015-Mar-27 20:32N 51°19' E 004°20'0 0.0
2015-Mar-27 19:29N 51°19' E 004°20'0 0.0
2015-Mar-27 18:32N 51°19' E 004°20'0 0.1
2015-Mar-27 17:30N 51°19' E 004°20'1 0.5
2015-Mar-27 16:28N 51°20' E 004°20'0 0.0
2015-Mar-27 15:25N 51°20' E 004°20'0 0.0
2015-Mar-27 14:31N 51°20' E 004°20'0 0.0
2015-Mar-27 13:31N 51°20' E 004°20'0 0.0
2015-Mar-27 12:22N 51°20' E 004°20'0 0.0
2015-Mar-27 11:25N 51°20' E 004°20'0 0.0
2015-Mar-27 10:31N 51°20' E 004°20'0 0.0
2015-Mar-27 09:31N 51°20' E 004°20'0 0.0
2015-Mar-27 08:28N 51°20' E 004°20'0 0.0
2015-Mar-27 07:28N 51°20' E 004°20'0 0.0
2015-Mar-27 06:31N 51°20' E 004°20'0 0.0
2015-Mar-27 05:31N 51°20' E 004°20'0 0.0
2015-Mar-27 04:31N 51°20' E 004°20'0 0.0
2015-Mar-27 03:19N 51°20' E 004°20'0 0.0
2015-Mar-27 02:31N 51°20' E 004°20'0 0.0
2015-Mar-27 01:32N 51°20' E 004°20'0 0.0
2015-Mar-27 00:31N 51°20' E 004°20'0 0.0
2015-Mar-26 23:25N 51°20' E 004°20'0 0.0
2015-Mar-26 22:32N 51°20' E 004°20'0 0.0
2015-Mar-26 21:26N 51°20' E 004°20'0 0.0
2015-Mar-26 20:29N 51°20' E 004°20'0 0.0
2015-Mar-26 19:26N 51°20' E 004°20'0 0.0
2015-Mar-26 18:32N 51°20' E 004°20'0 0.0
2015-Mar-26 17:32N 51°20' E 004°20'0 0.0
2015-Mar-26 16:32N 51°20' E 004°20'0 0.0
2015-Mar-26 15:29N 51°20' E 004°20'0 0.0
2015-Mar-26 14:32N 51°20' E 004°20'0 0.0
2015-Mar-26 13:32N 51°20' E 004°20'0 0.0
2015-Mar-26 12:32N 51°20' E 004°20'0 0.0
2015-Mar-26 11:31N 51°20' E 004°20'0 0.0
2015-Mar-26 10:32N 51°20' E 004°20'0 0.0
2015-Mar-26 09:32N 51°20' E 004°20'0 0.0
2015-Mar-26 08:32N 51°20' E 004°20'0 0.0
2015-Mar-26 07:32N 51°20' E 004°20'0 0.0
2015-Mar-26 06:32N 51°20' E 004°20'0 0.0
2015-Mar-26 05:29N 51°20' E 004°20'0 0.0
2015-Mar-26 04:29N 51°20' E 004°20'0 0.2
2015-Mar-26 03:34N 51°20' E 004°20'2 2.2
2015-Mar-26 02:34N 51°21' E 004°17'1 1.1
2015-Mar-26 01:34N 51°21' E 004°15'6 5.9
2015-Mar-26 00:34N 51°22' E 004°06'7 6.6
2015-Mar-25 23:33N 51°22' E 003°56'10 9.9
2015-Mar-25 22:33N 51°26' E 003°41'9 9.2
2015-Mar-25 21:34N 51°25' E 003°26'1413.8
2015-Mar-25 20:33N 51°24' E 003°04'1312.7
2015-Mar-25 19:33N 51°22' E 002°44'4 3.7
2015-Mar-25 18:33N 51°25' E 002°40'0 0.0
2015-Mar-25 17:31N 51°25' E 002°40'0 0.0
2015-Mar-25 16:28N 51°25' E 002°40'0 0.1
2015-Mar-25 15:25N 51°25' E 002°40'0 0.1
2015-Mar-25 14:28N 51°25' E 002°40'0 0.1
2015-Mar-25 13:31N 51°25' E 002°40'0 0.0
2015-Mar-25 12:31N 51°25' E 002°40'0 0.0
2015-Mar-25 11:31N 51°25' E 002°40'0 0.0
2015-Mar-25 10:31N 51°25' E 002°40'0 0.0
2015-Mar-25 09:31N 51°25' E 002°40'0 0.1
2015-Mar-25 08:31N 51°25' E 002°40'0 0.0
2015-Mar-25 07:31N 51°25' E 002°40'0 0.2
2015-Mar-25 06:30N 51°25' E 002°40'2 2.1
2015-Mar-25 05:33N 51°23' E 002°39'1212.5
2015-Mar-25 04:33N 51°19' E 002°20'1818.2
2015-Mar-25 03:33N 51°11' E 001°54'1918.8
2015-Mar-25 02:33N 50°59' E 001°30'1817.5
2015-Mar-25 01:33N 50°43' E 001°21'4217.6
2015-Mar-24 23:09N 50°24' E 000°21'  
2015-Mar-22 15:33N 39°17' W 009°49'1616.1
2015-Mar-22 14:33N 39°01' W 009°52'1616.1
2015-Mar-22 13:33N 38°45' W 009°52'1615.6
2015-Mar-22 12:33N 38°29' W 009°51'1616.1
2015-Mar-22 11:33N 38°13' W 009°51'1615.7
2015-Mar-22 10:33N 37°57' W 009°52'1515.4
2015-Mar-22 09:33N 37°43' W 009°58'1818.5
2015-Mar-22 08:33N 37°25' W 009°54'  

Dump ship's entire track history